Lufkin, TX (75902)

12:32 AM CDT on July 29, 2016 (GMT -0500)
CITY OF HUDSON | | Change Station

Elev 351 ft 31.33 °N, 94.78 °W | Updated 12 seconds ago

Clear
Clear
74.8 °F
Feels Like 73 °F
N
1.2
Wind Variable Wind from WSW
Gusts 1.2 mph

Today
High -- | Low -- °F
--% Chance of Precip.
Yesterday
High -- | Low -- °F
Precip. -- in
Pressure 29.99 in
Visibility 9.0 miles
Clouds Clear
Heat Index 73 °F
Dew Point 73 °F
Humidity 93%
Rainfall 0.00 in
Snow Depth Not available.
6:34 AM 8:16 PM
Waning Crescent, 25% visible
METAR KLFK 290453Z AUTO 16004KT 9SM CLR 23/22 A3000 RMK AO2 SLP153 T02280222
Pressure 29.99 in
Visibility 9.0 miles
Clouds Clear
Heat Index 73 °F
Dew Point 73 °F
Humidity 93%
Rainfall 0.00 in
Snow Depth Not available.
6:34 AM 8:16 PM
Waning Crescent, 25% visible
METAR KLFK 290453Z AUTO 16004KT 9SM CLR 23/22 A3000 RMK AO2 SLP153 T02280222

10-Day Weather Forecast

Almanac

Astronomy

Jul. 29, 2016 Rise Set
Actual Time
Civil Twilight
Nautical Twilight
Astronomical Twilight
Moon
Length of Visible Light
Length of Day
Tomorrow will be .
, % of the Moon is Illuminated

Today's Extremes

State Highs State Lows

Community

WunderPhotos

Upload Photos

1,928,299 photos uploaded!

WunderBlog® & News

Nearby

Air Quality

  Air Quality AQ Index Pollutant
Not available.

Snow Depth

Station Depth Elevation

Earthquake Activity

City Distance Mag. Time & Date
Minimum magnitude displayed is 2.5.

Coastal Water Temperatures

Place Temperature

Stations

Nearby Weather Stations

Station Location Temp. Windchill Dew Point Humidity Wind Precip. Elev Updated Type
                   

Watches & Warnings

There are currently no watches in effect.